createdAt,value
2023-12-20T00:00:26.891Z,12.40
2023-12-20T00:03:04.033Z,12.40
2023-12-20T00:05:42.369Z,9.40
2023-12-20T00:08:19.171Z,8.20
2023-12-20T00:10:56.164Z,9.50
2023-12-20T00:13:33.354Z,37.70
2023-12-20T00:16:11.652Z,28.80
2023-12-20T00:18:47.988Z,16.90
2023-12-20T00:21:24.114Z,11.60
2023-12-20T00:24:02.261Z,12.40
2023-12-20T00:26:38.983Z,16.70
2023-12-20T00:29:16.650Z,11.60
2023-12-20T00:31:53.384Z,15.40
2023-12-20T00:34:30.669Z,18.60
2023-12-20T00:37:08.094Z,19.00
2023-12-20T00:39:45.136Z,18.20
2023-12-20T00:42:21.564Z,16.70
2023-12-20T00:44:58.082Z,15.40
2023-12-20T00:47:35.138Z,14.40
2023-12-20T00:50:19.085Z,16.10
2023-12-20T00:52:57.790Z,15.60
2023-12-20T00:55:35.026Z,16.50
2023-12-20T00:58:12.077Z,12.90
2023-12-20T01:00:48.929Z,9.80
2023-12-20T01:03:25.778Z,11.10
2023-12-20T01:06:02.439Z,11.10
2023-12-20T01:08:40.999Z,9.20
2023-12-20T01:11:17.832Z,9.50
2023-12-20T01:13:55.305Z,10.50
2023-12-20T01:16:32.539Z,10.00
2023-12-20T01:19:09.622Z,10.00
2023-12-20T01:21:45.924Z,9.40
2023-12-20T01:24:22.413Z,9.40
2023-12-20T01:26:59.393Z,8.30
2023-12-20T01:29:36.815Z,8.30
2023-12-20T01:32:15.375Z,9.20
2023-12-20T01:34:51.260Z,9.10
2023-12-20T01:37:28.008Z,9.10
2023-12-20T01:40:04.470Z,9.10
2023-12-20T01:42:41.840Z,8.20
2023-12-20T01:45:22.620Z,8.00
2023-12-20T01:48:00.419Z,7.30
2023-12-20T01:50:39.511Z,7.00
2023-12-20T01:53:19.546Z,7.10
2023-12-20T01:55:58.704Z,7.90
2023-12-20T01:58:36.222Z,7.90
2023-12-20T02:01:13.114Z,8.10
2023-12-20T02:03:51.316Z,8.40
2023-12-20T02:06:32.984Z,8.50
2023-12-20T02:09:10.559Z,8.80
2023-12-20T02:11:48.184Z,8.60
2023-12-20T02:14:25.627Z,10.20
2023-12-20T02:17:03.115Z,9.50
2023-12-20T02:19:40.206Z,9.70
2023-12-20T02:22:19.125Z,10.00
2023-12-20T02:24:55.893Z,9.50
2023-12-20T02:27:33.472Z,11.30
2023-12-20T02:30:14.479Z,14.10
2023-12-20T02:32:52.376Z,15.40
2023-12-20T02:35:29.199Z,13.30
2023-12-20T02:38:05.938Z,12.40
2023-12-20T02:40:49.394Z,12.60
2023-12-20T02:43:27.441Z,14.10
2023-12-20T02:46:05.108Z,13.30
2023-12-20T02:48:41.964Z,12.70
2023-12-20T02:51:19.049Z,12.10
2023-12-20T02:53:55.322Z,11.90
2023-12-20T02:56:32.559Z,11.10
2023-12-20T02:59:10.033Z,10.70
2023-12-20T03:01:51.144Z,9.50
2023-12-20T03:04:28.113Z,10.90
2023-12-20T03:07:04.980Z,10.30
2023-12-20T03:09:54.236Z,10.60
2023-12-20T03:12:40.244Z,9.40
2023-12-20T03:15:19.104Z,9.30
2023-12-20T03:17:55.762Z,9.10
2023-12-20T03:20:35.580Z,9.40
2023-12-20T03:23:12.807Z,9.70
2023-12-20T03:25:50.367Z,10.30
2023-12-20T03:28:27.680Z,10.70
2023-12-20T03:31:05.388Z,9.30
2023-12-20T03:33:41.948Z,9.30
2023-12-20T03:36:19.144Z,9.60
2023-12-20T03:38:55.659Z,9.70
2023-12-20T03:41:32.401Z,9.30
2023-12-20T03:44:09.911Z,9.30
2023-12-20T03:46:47.148Z,9.30
2023-12-20T03:49:24.370Z,9.20
2023-12-20T03:52:01.601Z,8.00
2023-12-20T03:54:38.764Z,7.80
2023-12-20T03:57:16.737Z,6.90
2023-12-20T03:59:53.554Z,7.30
2023-12-20T04:02:30.412Z,7.30
2023-12-20T04:05:06.742Z,8.70
2023-12-20T04:07:44.591Z,8.70
2023-12-20T04:10:22.177Z,7.70
2023-12-20T04:12:59.832Z,8.50
2023-12-20T04:15:36.329Z,12.70
2023-12-20T04:18:13.523Z,11.60
2023-12-20T04:20:50.940Z,11.00
2023-12-20T04:23:27.928Z,11.80
2023-12-20T04:26:04.421Z,11.10
2023-12-20T04:28:42.178Z,11.20
2023-12-20T04:31:19.040Z,10.40
2023-12-20T04:33:56.112Z,11.00
2023-12-20T04:36:33.154Z,11.00
2023-12-20T04:39:10.653Z,10.20
2023-12-20T04:41:48.814Z,10.40
2023-12-20T04:44:25.833Z,11.00
2023-12-20T04:47:02.816Z,11.20
2023-12-20T04:49:39.524Z,9.70
2023-12-20T04:52:16.569Z,8.70
2023-12-20T04:54:52.563Z,8.50
2023-12-20T04:57:29.702Z,8.20
2023-12-20T05:00:07.390Z,8.20
2023-12-20T05:02:44.126Z,8.00
2023-12-20T05:05:21.205Z,8.60
2023-12-20T05:07:58.037Z,9.00
2023-12-20T05:10:34.432Z,8.50
2023-12-20T05:13:11.901Z,9.70
2023-12-20T05:15:47.914Z,9.40
2023-12-20T05:18:24.422Z,10.00
2023-12-20T05:21:01.102Z,9.40
2023-12-20T05:23:38.289Z,8.00
2023-12-20T05:26:14.093Z,8.30
2023-12-20T05:28:51.082Z,7.70
2023-12-20T05:31:27.443Z,8.10
2023-12-20T05:34:03.986Z,9.90
2023-12-20T05:36:41.035Z,9.80
2023-12-20T05:39:17.513Z,9.30
2023-12-20T05:41:54.087Z,9.00
2023-12-20T05:44:31.205Z,8.10
2023-12-20T05:47:08.867Z,7.80
2023-12-20T05:49:47.240Z,8.60
2023-12-20T05:52:23.924Z,7.40
2023-12-20T05:55:02.825Z,7.90
2023-12-20T05:57:40.835Z,7.80
2023-12-20T06:00:26.591Z,7.90
2023-12-20T06:03:03.390Z,8.10
2023-12-20T06:05:40.536Z,8.40
2023-12-20T06:08:17.810Z,8.60
2023-12-20T06:10:54.982Z,8.00
2023-12-20T06:13:32.243Z,8.70
2023-12-20T06:16:12.637Z,7.50
2023-12-20T06:18:48.920Z,7.30
2023-12-20T06:21:25.816Z,7.90
2023-12-20T06:24:03.662Z,8.50
2023-12-20T06:26:40.399Z,9.70
2023-12-20T06:29:17.580Z,10.00
2023-12-20T06:31:54.641Z,10.10
2023-12-20T06:34:31.473Z,8.90
2023-12-20T06:37:08.794Z,7.90
2023-12-20T06:39:46.923Z,9.30
2023-12-20T06:42:23.735Z,8.70
2023-12-20T06:45:00.767Z,9.10
2023-12-20T06:47:38.060Z,9.40
2023-12-20T06:50:17.635Z,10.50
2023-12-20T06:52:54.265Z,10.40
2023-12-20T06:55:30.833Z,10.40
2023-12-20T06:58:07.868Z,10.60
2023-12-20T07:00:44.769Z,11.70
2023-12-20T07:03:21.766Z,11.90
2023-12-20T07:05:58.844Z,11.60
2023-12-20T07:08:35.972Z,11.30
2023-12-20T07:11:12.874Z,11.20
2023-12-20T07:13:50.789Z,10.60
2023-12-20T07:16:28.328Z,10.50
2023-12-20T07:19:05.582Z,9.70
2023-12-20T07:21:42.990Z,10.40
2023-12-20T07:24:19.910Z,9.90
2023-12-20T07:26:56.989Z,10.00
2023-12-20T07:29:34.510Z,10.30
2023-12-20T07:32:14.030Z,29.90
2023-12-20T07:34:51.761Z,20.60
2023-12-20T07:37:29.874Z,23.30
2023-12-20T07:40:06.674Z,19.70
2023-12-20T07:42:43.245Z,13.80
2023-12-20T07:45:20.637Z,11.90
2023-12-20T07:47:58.303Z,9.80
2023-12-20T07:50:35.331Z,12.70
2023-12-20T07:53:13.999Z,12.90
2023-12-20T07:55:50.612Z,13.90
2023-12-20T07:58:36.378Z,11.80
2023-12-20T08:01:23.605Z,12.40
2023-12-20T08:04:01.487Z,12.20
2023-12-20T08:06:38.112Z,13.40
2023-12-20T08:09:14.488Z,12.20
2023-12-20T08:11:53.186Z,11.90
2023-12-20T08:14:30.945Z,10.90
2023-12-20T08:17:08.064Z,11.50
2023-12-20T08:19:49.332Z,12.00
2023-12-20T08:22:26.138Z,11.40
2023-12-20T08:25:03.130Z,11.50
2023-12-20T08:27:39.846Z,12.00
2023-12-20T08:30:23.511Z,13.90
2023-12-20T08:32:59.612Z,13.30
2023-12-20T08:35:36.364Z,13.90
2023-12-20T08:38:13.409Z,12.80
2023-12-20T08:40:50.034Z,12.40
2023-12-20T08:43:26.871Z,12.50
2023-12-20T08:46:03.335Z,13.00
2023-12-20T08:48:41.431Z,12.50
2023-12-20T08:51:19.275Z,11.50
2023-12-20T08:53:55.986Z,12.40
2023-12-20T08:56:32.247Z,12.90
2023-12-20T08:59:08.771Z,12.70
2023-12-20T09:01:45.731Z,12.30
2023-12-20T09:04:22.995Z,13.50
2023-12-20T09:07:00.385Z,12.90
2023-12-20T09:09:37.441Z,12.00
2023-12-20T09:12:19.502Z,13.20
2023-12-20T09:14:57.989Z,14.00
2023-12-20T09:17:35.580Z,15.10
2023-12-20T09:20:16.646Z,15.40
2023-12-20T09:22:53.712Z,16.10
2023-12-20T09:25:30.010Z,15.40
2023-12-20T09:28:06.482Z,16.40
2023-12-20T09:30:43.837Z,16.40
2023-12-20T09:33:20.215Z,16.20
2023-12-20T09:35:57.113Z,17.00
2023-12-20T09:38:33.836Z,17.20
2023-12-20T09:41:11.956Z,19.20
2023-12-20T09:43:49.295Z,17.60
2023-12-20T09:46:32.711Z,16.70
2023-12-20T09:49:10.781Z,17.70
2023-12-20T09:51:49.967Z,17.40
2023-12-20T09:54:27.174Z,17.50
2023-12-20T09:57:03.560Z,16.60
2023-12-20T09:59:41.595Z,17.30
2023-12-20T10:02:25.911Z,17.60
2023-12-20T10:05:04.840Z,16.90
2023-12-20T10:07:42.423Z,15.90
2023-12-20T10:10:21.269Z,17.70
2023-12-20T10:13:16.252Z,14.40
2023-12-20T10:15:53.422Z,15.90
2023-12-20T10:18:38.147Z,14.90
2023-12-20T10:21:16.293Z,15.40
2023-12-20T10:23:54.559Z,14.90
2023-12-20T10:26:32.619Z,14.20
2023-12-20T10:29:10.847Z,14.00
2023-12-20T10:31:47.999Z,15.30
2023-12-20T10:34:25.034Z,14.40
2023-12-20T10:37:03.364Z,12.80
2023-12-20T10:39:41.222Z,15.10
2023-12-20T10:42:18.287Z,14.00
2023-12-20T10:44:58.500Z,14.10
2023-12-20T10:47:37.575Z,14.20
2023-12-20T10:50:20.056Z,13.20
2023-12-20T10:52:58.862Z,15.10
2023-12-20T10:55:36.429Z,14.30
2023-12-20T10:58:17.561Z,15.00
2023-12-20T11:01:01.810Z,14.60
2023-12-20T11:03:45.932Z,14.70
2023-12-20T11:06:39.738Z,16.20
2023-12-20T11:09:28.682Z,15.90
2023-12-20T11:12:19.729Z,15.10
2023-12-20T11:14:59.265Z,15.40
2023-12-20T11:17:35.756Z,16.10
2023-12-20T11:20:19.501Z,15.90
2023-12-20T11:23:04.451Z,17.80
2023-12-20T11:25:56.204Z,17.30
2023-12-20T11:28:34.858Z,16.50
2023-12-20T11:31:12.425Z,17.30
2023-12-20T11:33:50.259Z,16.20
2023-12-20T11:36:36.277Z,15.50
2023-12-20T11:39:14.778Z,14.20
2023-12-20T11:41:55.604Z,18.10
2023-12-20T11:44:37.211Z,16.00
2023-12-20T11:47:17.163Z,14.70
2023-12-20T11:49:57.440Z,14.60
2023-12-20T11:52:33.709Z,13.80
2023-12-20T11:55:11.838Z,14.70
2023-12-20T11:57:49.271Z,15.60
2023-12-20T12:00:28.495Z,14.50
2023-12-20T12:03:10.764Z,14.80
2023-12-20T12:05:50.069Z,15.60
2023-12-20T12:08:27.582Z,14.80
2023-12-20T12:11:05.986Z,14.50
2023-12-20T12:13:42.765Z,14.30
2023-12-20T12:16:21.366Z,13.20
2023-12-20T12:19:05.587Z,13.60
2023-12-20T12:21:42.128Z,12.40
2023-12-20T12:24:23.245Z,12.60
2023-12-20T12:27:06.695Z,14.00
2023-12-20T12:29:44.220Z,12.50
2023-12-20T12:32:22.453Z,11.80
2023-12-20T12:34:59.940Z,12.40
2023-12-20T12:37:37.473Z,13.60
2023-12-20T12:40:19.420Z,13.90
2023-12-20T12:42:56.114Z,13.20
2023-12-20T12:45:31.662Z,13.20
2023-12-20T12:48:09.958Z,13.30
2023-12-20T12:50:46.536Z,13.20
2023-12-20T12:53:23.289Z,13.60
2023-12-20T12:56:00.567Z,12.60
2023-12-20T12:58:37.544Z,12.60
2023-12-20T13:01:14.872Z,13.60
2023-12-20T13:03:52.140Z,14.30
2023-12-20T13:06:29.132Z,12.70
2023-12-20T13:09:06.062Z,13.50
2023-12-20T13:11:43.448Z,13.00
2023-12-20T13:14:20.762Z,12.30
2023-12-20T13:16:58.446Z,11.70
2023-12-20T13:19:35.283Z,12.70
2023-12-20T13:22:13.250Z,13.00
2023-12-20T13:24:50.097Z,13.10
2023-12-20T13:27:27.354Z,13.70
2023-12-20T13:30:04.617Z,13.70
2023-12-20T13:32:41.161Z,13.20
2023-12-20T13:35:19.049Z,13.00
2023-12-20T13:37:59.567Z,13.10
2023-12-20T13:40:36.767Z,13.50
2023-12-20T13:43:15.468Z,13.20
2023-12-20T13:45:52.243Z,11.80
2023-12-20T13:48:29.573Z,12.60
2023-12-20T13:51:07.170Z,12.80
2023-12-20T13:53:44.030Z,13.00
2023-12-20T13:56:21.521Z,13.50
2023-12-20T13:58:58.829Z,12.80
2023-12-20T14:01:35.611Z,13.30
2023-12-20T14:04:12.843Z,14.20
2023-12-20T14:07:11.183Z,14.10
2023-12-20T14:09:47.807Z,14.50
2023-12-20T14:12:25.448Z,14.70
2023-12-20T14:15:02.097Z,14.30
2023-12-20T14:17:38.953Z,15.70
2023-12-20T14:20:18.486Z,16.60
2023-12-20T14:22:55.085Z,17.50
2023-12-20T14:25:39.183Z,17.10
2023-12-20T14:28:23.047Z,16.80
2023-12-20T14:31:00.562Z,20.10
2023-12-20T14:33:37.608Z,20.00
2023-12-20T14:36:18.898Z,19.30
2023-12-20T14:38:55.952Z,18.90
2023-12-20T14:41:34.054Z,20.50
2023-12-20T14:44:11.050Z,20.90
2023-12-20T14:46:47.576Z,21.70
2023-12-20T14:49:24.570Z,20.80
2023-12-20T14:52:01.622Z,20.30
2023-12-20T14:54:37.632Z,21.70
2023-12-20T14:57:14.097Z,18.60
2023-12-20T14:59:50.736Z,18.70
2023-12-20T15:02:27.618Z,18.10
2023-12-20T15:05:04.372Z,17.80
2023-12-20T15:07:43.108Z,18.40
2023-12-20T15:10:22.125Z,19.80
2023-12-20T15:12:59.516Z,18.90
2023-12-20T15:15:36.170Z,18.10
2023-12-20T15:18:15.074Z,18.90
2023-12-20T15:20:51.821Z,18.70
2023-12-20T15:23:30.587Z,19.60
2023-12-20T15:26:07.704Z,22.30
2023-12-20T15:28:44.787Z,21.00
2023-12-20T15:31:28.050Z,20.80
2023-12-20T15:34:04.857Z,20.10
2023-12-20T15:36:42.286Z,23.60
2023-12-20T15:39:19.319Z,22.30
2023-12-20T15:41:57.118Z,18.80
2023-12-20T15:44:34.658Z,17.90
2023-12-20T15:47:12.309Z,18.40
2023-12-20T15:49:51.336Z,19.90
2023-12-20T15:52:29.933Z,20.40
2023-12-20T15:55:07.982Z,18.50
2023-12-20T15:57:52.088Z,20.30
2023-12-20T16:00:32.439Z,17.90
2023-12-20T16:03:24.017Z,16.00
2023-12-20T16:06:02.846Z,16.00
2023-12-20T16:08:39.994Z,15.60
2023-12-20T16:11:18.528Z,16.90
2023-12-20T16:13:54.953Z,15.60
2023-12-20T16:16:32.057Z,15.40
2023-12-20T16:19:08.497Z,16.50
2023-12-20T16:21:45.891Z,17.60
2023-12-20T16:24:22.666Z,17.50
2023-12-20T16:26:59.113Z,19.50
2023-12-20T16:29:35.434Z,23.50
2023-12-20T16:32:13.422Z,25.50
2023-12-20T16:34:50.652Z,29.50
2023-12-20T16:37:26.991Z,22.20
2023-12-20T16:40:03.537Z,20.00
2023-12-20T16:42:39.403Z,17.30
2023-12-20T16:45:21.841Z,22.00
2023-12-20T16:47:58.378Z,19.50
2023-12-20T16:53:36.442Z,15.60
2023-12-20T16:56:15.425Z,14.60
2023-12-20T16:58:53.297Z,13.60
2023-12-20T17:01:30.531Z,14.50
2023-12-20T17:04:07.993Z,12.60
2023-12-20T17:06:45.250Z,13.00
2023-12-20T17:09:22.727Z,13.00
2023-12-20T17:12:00.245Z,13.80
2023-12-20T17:14:37.277Z,14.10
2023-12-20T17:17:14.548Z,13.90
2023-12-20T17:19:52.293Z,13.30
2023-12-20T17:22:30.121Z,14.30
2023-12-20T17:25:07.671Z,14.60
2023-12-20T17:27:46.720Z,14.10
2023-12-20T17:30:25.099Z,13.90
2023-12-20T17:33:02.139Z,12.90
2023-12-20T17:35:39.124Z,12.90
2023-12-20T17:38:15.344Z,11.40
2023-12-20T17:40:52.414Z,11.60
2023-12-20T17:43:30.655Z,11.50
2023-12-20T17:46:07.386Z,12.30
2023-12-20T17:48:44.909Z,11.90
2023-12-20T17:51:22.066Z,13.60
2023-12-20T17:54:02.492Z,17.80
2023-12-20T17:56:39.411Z,14.30
2023-12-20T17:59:16.767Z,14.00
2023-12-20T18:01:54.495Z,15.10
2023-12-20T18:04:32.516Z,18.00
2023-12-20T18:07:10.382Z,17.30
2023-12-20T18:09:46.949Z,16.90
2023-12-20T18:12:24.328Z,16.70
2023-12-20T18:15:01.608Z,14.80
2023-12-20T18:17:50.440Z,15.50
2023-12-20T18:20:34.725Z,20.10
2023-12-20T18:23:24.165Z,20.90
2023-12-20T18:26:04.520Z,22.70
2023-12-20T18:28:47.528Z,24.80
2023-12-20T18:31:30.893Z,22.00
2023-12-20T18:34:11.091Z,20.20
2023-12-20T18:36:53.572Z,18.60
2023-12-20T18:39:30.585Z,21.80
2023-12-20T18:42:11.276Z,21.30
2023-12-20T18:44:50.568Z,17.40
2023-12-20T18:47:30.210Z,15.00
2023-12-20T18:50:10.376Z,14.20
2023-12-20T18:52:47.618Z,13.90
2023-12-20T18:55:26.892Z,13.90
2023-12-20T18:58:13.984Z,14.70
2023-12-20T19:01:01.156Z,13.00
2023-12-20T19:03:48.682Z,17.80
2023-12-20T19:06:29.954Z,79.00
2023-12-20T19:09:09.377Z,79.50
2023-12-20T19:11:49.434Z,29.00
2023-12-20T19:14:26.284Z,15.60
2023-12-20T19:17:05.590Z,14.10
2023-12-20T19:19:43.226Z,11.60
2023-12-20T19:22:20.686Z,12.50
2023-12-20T19:24:58.729Z,12.60
2023-12-20T19:27:35.766Z,23.20
2023-12-20T19:30:18.830Z,12.60
2023-12-20T19:32:55.186Z,11.10
2023-12-20T19:35:32.545Z,10.20
2023-12-20T19:38:10.942Z,10.80
2023-12-20T19:40:48.067Z,16.50
2023-12-20T19:43:24.866Z,16.70
2023-12-20T19:46:01.607Z,20.80
2023-12-20T19:48:38.316Z,15.20
2023-12-20T19:51:16.420Z,11.30
2023-12-20T19:53:53.327Z,9.80
2023-12-20T19:56:31.492Z,10.00
2023-12-20T19:59:08.409Z,10.10
2023-12-20T20:01:46.924Z,10.30
2023-12-20T20:04:25.010Z,10.50
2023-12-20T20:07:02.263Z,10.70
2023-12-20T20:09:39.386Z,12.00
2023-12-20T20:12:20.481Z,11.20
2023-12-20T20:14:58.026Z,13.10
2023-12-20T20:17:35.493Z,14.70
2023-12-20T20:20:16.182Z,15.70
2023-12-20T20:22:54.215Z,14.20
2023-12-20T20:25:35.720Z,17.20
2023-12-20T20:28:15.417Z,14.30
2023-12-20T20:30:53.396Z,14.90
2023-12-20T20:33:31.536Z,17.60
2023-12-20T20:36:11.665Z,13.50
2023-12-20T20:38:49.633Z,12.20
2023-12-20T20:41:26.742Z,13.20
2023-12-20T20:44:03.644Z,15.40
2023-12-20T20:46:41.717Z,15.30
2023-12-20T20:49:19.753Z,14.60
2023-12-20T20:51:56.513Z,15.20
2023-12-20T20:54:33.653Z,12.40
2023-12-20T20:57:11.220Z,16.10
2023-12-20T20:59:49.161Z,19.20
2023-12-20T21:02:26.453Z,20.30
2023-12-20T21:05:04.512Z,17.70
2023-12-20T21:07:46.179Z,16.90
2023-12-20T21:10:23.152Z,16.50
2023-12-20T21:13:00.358Z,18.30
2023-12-20T21:15:37.066Z,20.50
2023-12-20T21:18:15.742Z,22.00
2023-12-20T21:20:55.193Z,24.60
2023-12-20T21:23:32.587Z,20.40
2023-12-20T21:26:09.681Z,18.10
2023-12-20T21:28:47.076Z,19.20
2023-12-20T21:31:23.425Z,21.40
2023-12-20T21:34:01.088Z,23.70
2023-12-20T21:36:37.873Z,16.90
2023-12-20T21:39:14.282Z,15.80
2023-12-20T21:41:52.819Z,15.50
2023-12-20T21:44:29.979Z,13.60
2023-12-20T21:47:06.637Z,12.70
2023-12-20T21:49:44.046Z,11.90
2023-12-20T21:52:21.740Z,10.20
2023-12-20T21:54:57.740Z,9.80
2023-12-20T21:57:35.563Z,10.60
2023-12-20T22:00:18.631Z,8.30
2023-12-20T22:02:55.846Z,8.60
2023-12-20T22:05:33.122Z,9.00
2023-12-20T22:08:13.009Z,7.90
2023-12-20T22:10:49.756Z,10.10
2023-12-20T22:13:28.139Z,7.80
2023-12-20T22:16:06.156Z,8.90
2023-12-20T22:18:43.372Z,8.60
2023-12-20T22:21:20.990Z,8.70
2023-12-20T22:23:57.971Z,8.10
2023-12-20T22:26:36.755Z,8.30
2023-12-20T22:29:14.106Z,8.10
2023-12-20T22:31:51.502Z,7.70
2023-12-20T22:34:28.522Z,7.20
2023-12-20T22:37:05.249Z,7.90
2023-12-20T22:39:41.904Z,8.60
2023-12-20T22:42:19.025Z,10.30
2023-12-20T22:44:56.451Z,16.80
2023-12-20T22:47:33.716Z,13.50
2023-12-20T22:50:12.724Z,11.20
2023-12-20T22:52:50.571Z,9.70
2023-12-20T22:55:27.758Z,10.40
2023-12-20T22:58:05.972Z,7.90
2023-12-20T23:00:43.314Z,8.80
2023-12-20T23:03:26.528Z,8.10
2023-12-20T23:06:03.235Z,7.70
2023-12-20T23:08:40.431Z,8.30
2023-12-20T23:11:17.936Z,7.50
2023-12-20T23:14:00.934Z,7.20
2023-12-20T23:16:43.999Z,6.70
2023-12-20T23:19:20.638Z,7.10
2023-12-20T23:21:58.144Z,7.20
2023-12-20T23:24:34.959Z,6.00
2023-12-20T23:27:13.414Z,6.90
2023-12-20T23:29:50.707Z,7.30
2023-12-20T23:32:28.230Z,8.40
2023-12-20T23:35:13.284Z,8.20
2023-12-20T23:37:53.665Z,9.00
2023-12-20T23:40:31.019Z,7.80
2023-12-20T23:43:09.279Z,10.40
2023-12-20T23:45:46.864Z,8.80
2023-12-20T23:48:24.380Z,6.70
2023-12-20T23:51:02.234Z,17.20
2023-12-20T23:53:41.160Z,11.10
2023-12-20T23:56:27.566Z,9.90
2023-12-20T23:59:10.947Z,9.90
